»·PEaware :: N107MR KBFI-KWYS

N107MR :: KBFI-KWYS

FLIGHT INFORMATION

Flight Status: Arrived
Operator: Privately registered:
United States
More flights under this callsign
Pilot: Michael R. (16974)
Aircraft: ECLIPSE 500
(EA50)
More flights by this aircraft type
Origin: KBFI Boeing Field/King Co Intl
United States
Destination: KWYS Yellowstone
United States
More flights between these airports :: More routes between these airports
Route: +CBAIN1 NORMY STEVS Q150 BAXGO DBS
File this flight plan on PilotEdge
Remarks:
Altitude:
(Current/Filed)
27,000ft
Speed:
(Current/Filed)
350kts
Departed: 13-Jan-18 08:59 PM
Arrived: 13-Jan-18 10:40 PM
Distance/Time
Traveled:
495nm/1:41
Distance/Time
To Go:
Arrived

Flight Plot

Page will automatically refresh every two minutes.

Flight plan parsing failed; only flown route is shown


Map Options




Map Legend


Flown Route
Filed Route
Departure Airport
Arrival Airport
Navaid (VOR, NDB)
Fix

Horizontal Profiles

Position Reports

Time Latitude Longitude Heading Altitude Ground
Speed
13-Jan-18 20:35 47.544677 -122.312503 142 19ft 0kts
13-Jan-18 20:36 47.544677 -122.312503 142 19ft 0kts
13-Jan-18 20:37 47.544677 -122.312503 142 19ft 0kts
13-Jan-18 20:38 47.544677 -122.312503 142 19ft 0kts
13-Jan-18 20:39 47.544677 -122.312503 142 19ft 0kts
13-Jan-18 20:40 47.544677 -122.312503 142 19ft 0kts
13-Jan-18 20:41 47.544677 -122.312503 142 19ft 0kts
13-Jan-18 20:42 47.544677 -122.312503 142 19ft 0kts
13-Jan-18 20:43 47.544677 -122.312503 142 19ft 0kts
13-Jan-18 20:44 47.544677 -122.312503 142 19ft 0kts
13-Jan-18 20:45 47.544677 -122.312503 142 19ft 0kts
13-Jan-18 20:46 47.544677 -122.312503 142 19ft 0kts
13-Jan-18 20:47 47.544677 -122.312503 142 19ft 0kts
13-Jan-18 20:48 47.542902 -122.310810 141 19ft 9kts
13-Jan-18 20:49 47.542038 -122.309911 173 19ft 0kts
13-Jan-18 20:50 47.542038 -122.309911 173 19ft 0kts
13-Jan-18 20:51 47.542038 -122.309911 173 19ft 0kts
13-Jan-18 20:52 47.542038 -122.309911 173 19ft 0kts
13-Jan-18 20:53 47.542038 -122.309911 173 19ft 0kts
13-Jan-18 20:54 47.542038 -122.309911 173 19ft 0kts
13-Jan-18 20:55 47.540162 -122.308351 144 19ft 16kts
13-Jan-18 20:56 47.535704 -122.304337 143 18ft 20kts
13-Jan-18 20:57 47.530598 -122.299935 150 19ft 22kts
13-Jan-18 20:58 47.525550 -122.297108 149 16ft 20kts
13-Jan-18 20:59 47.520522 -122.292828 150 19ft 16kts
13-Jan-18 21:00 47.519798 -122.292217 154 19ft 0kts
13-Jan-18 21:01 47.519798 -122.292217 154 19ft 0kts
13-Jan-18 21:02 47.519798 -122.292217 155 19ft 0kts
13-Jan-18 21:03 47.519798 -122.292217 155 19ft 0kts
13-Jan-18 21:04 47.519456 -122.293555 330 18ft 3kts
13-Jan-18 21:05 47.531802 -122.304074 327 374ft 129kts
13-Jan-18 21:06 47.570589 -122.337279 329 1800ft 176kts
13-Jan-18 21:07 47.616714 -122.371545 24 2296ft 205kts
13-Jan-18 21:08 47.605903 -122.307635 133 5114ft 199kts
13-Jan-18 21:09 47.575104 -122.243032 122 8210ft 207kts
13-Jan-18 21:10 47.548531 -122.165890 116 10975ft 221kts
13-Jan-18 21:11 47.523962 -122.081245 113 13496ft 233kts
13-Jan-18 21:12 47.499762 -121.991154 112 15633ft 240kts
13-Jan-18 21:13 47.475462 -121.898174 112 17591ft 247kts
13-Jan-18 21:14 47.450972 -121.803802 111 19404ft 252kts
13-Jan-18 21:15 47.427652 -121.704573 102 21306ft 262kts
13-Jan-18 21:16 47.411707 -121.599360 102 23240ft 265kts
13-Jan-18 21:17 47.395989 -121.494585 101 25101ft 263kts
13-Jan-18 21:18 47.380364 -121.390552 101 26852ft 260kts
13-Jan-18 21:19 47.364350 -121.284393 102 27393ft 280kts
13-Jan-18 21:20 47.347142 -121.171276 102 27397ft 301kts
13-Jan-18 21:21 47.327223 -121.040943 102 27395ft 344kts
13-Jan-18 21:22 47.305923 -120.902918 102 27394ft 347kts
13-Jan-18 21:23 47.284489 -120.765190 102 27490ft 347kts
13-Jan-18 21:24 47.262734 -120.626708 101 27495ft 348kts
13-Jan-18 21:25 47.240680 -120.488604 102 27496ft 347kts
13-Jan-18 21:26 47.218160 -120.351073 102 27496ft 347kts
13-Jan-18 21:27 47.195820 -120.216009 102 27549ft 350kts
13-Jan-18 21:28 47.172787 -120.077541 102 27549ft 348kts
13-Jan-18 21:29 47.134229 -119.947957 115 27550ft 350kts
13-Jan-18 21:30 47.091411 -119.819913 115 27504ft 350kts
13-Jan-18 21:31 47.048236 -119.692483 115 27505ft 351kts
13-Jan-18 21:32 47.004839 -119.565021 115 27515ft 351kts
13-Jan-18 21:33 46.961111 -119.437330 115 27515ft 351kts
13-Jan-18 21:34 46.918292 -119.312911 115 27513ft 351kts
13-Jan-18 21:35 46.875686 -119.189826 115 27510ft 352kts
13-Jan-18 21:36 46.831506 -119.062606 115 27510ft 352kts
13-Jan-18 21:37 46.787230 -118.935782 115 27511ft 352kts
13-Jan-18 21:38 46.742842 -118.809248 115 27517ft 352kts
13-Jan-18 21:39 46.698206 -118.682748 115 27530ft 352kts
13-Jan-18 21:40 46.653460 -118.556334 115 27531ft 353kts
13-Jan-18 21:41 46.608230 -118.429226 115 27476ft 355kts
13-Jan-18 21:42 46.565090 -118.308562 115 27474ft 355kts
13-Jan-18 21:43 46.519522 -118.181823 115 27475ft 355kts
13-Jan-18 21:44 46.473927 -118.055423 115 27476ft 355kts
13-Jan-18 21:45 46.428207 -117.929327 115 27476ft 355kts
13-Jan-18 21:46 46.382181 -117.803001 115 27476ft 355kts
13-Jan-18 21:47 46.336436 -117.678133 114 27478ft 356kts
13-Jan-18 21:48 46.290387 -117.552835 115 27487ft 356kts
13-Jan-18 21:49 46.243704 -117.426479 115 27489ft 357kts
13-Jan-18 21:50 46.198449 -117.304535 115 27484ft 358kts
13-Jan-18 21:51 46.151460 -117.178644 115 27487ft 358kts
13-Jan-18 21:52 46.108259 -117.050291 112 27487ft 358kts
13-Jan-18 21:53 46.065367 -116.921014 112 27490ft 358kts
13-Jan-18 21:54 46.022568 -116.792524 112 27488ft 359kts
13-Jan-18 21:55 45.979692 -116.664494 111 27499ft 360kts
13-Jan-18 21:56 45.936258 -116.535254 111 27500ft 361kts
13-Jan-18 21:57 45.893667 -116.409196 111 27494ft 362kts
13-Jan-18 21:58 45.852556 -116.288108 112 27489ft 361kts
13-Jan-18 21:59 45.808878 -116.160176 111 27490ft 361kts
13-Jan-18 22:00 45.765028 -116.032155 111 27491ft 362kts
13-Jan-18 22:01 45.721042 -115.904373 112 27492ft 361kts
13-Jan-18 22:02 45.676653 -115.776156 112 27493ft 361kts
13-Jan-18 22:03 45.632213 -115.648444 111 27492ft 362kts
13-Jan-18 22:04 45.587447 -115.520275 111 27523ft 362kts
13-Jan-18 22:05 45.542674 -115.392737 111 27586ft 361kts
13-Jan-18 22:06 45.499348 -115.269892 112 27584ft 362kts
13-Jan-18 22:07 45.453914 -115.141796 111 27585ft 364kts
13-Jan-18 22:08 45.408653 -115.014528 112 27557ft 363kts
13-Jan-18 22:09 45.363162 -114.887424 112 27550ft 362kts
13-Jan-18 22:10 45.317543 -114.760519 112 27551ft 362kts
13-Jan-18 22:11 45.271889 -114.634143 112 27552ft 363kts
13-Jan-18 22:12 45.225674 -114.506711 112 27552ft 364kts
13-Jan-18 22:13 45.179384 -114.379730 112 27553ft 363kts
13-Jan-18 22:14 45.134777 -114.257917 112 27551ft 363kts
13-Jan-18 22:15 45.088355 -114.131747 112 27553ft 365kts
13-Jan-18 22:16 45.038448 -114.006728 121 27554ft 370kts
13-Jan-18 22:17 44.978766 -113.888960 121 27554ft 371kts
13-Jan-18 22:18 44.918300 -113.771402 121 27555ft 372kts
13-Jan-18 22:19 44.860575 -113.659891 121 27545ft 373kts
13-Jan-18 22:20 44.799391 -113.542161 121 27546ft 374kts
13-Jan-18 22:21 44.738281 -113.425063 121 27539ft 374kts
13-Jan-18 22:22 44.677590 -113.309165 123 26586ft 397kts
13-Jan-18 22:23 44.610586 -113.181922 123 25181ft 416kts
13-Jan-18 22:24 44.541428 -113.051099 123 23782ft 424kts
13-Jan-18 22:25 44.471443 -112.919357 123 22638ft 420kts
13-Jan-18 22:26 44.402551 -112.790240 124 21728ft 413kts
13-Jan-18 22:27 44.334029 -112.662393 124 20837ft 410kts
13-Jan-18 22:28 44.268059 -112.539852 124 19621ft 370kts
13-Jan-18 22:29 44.209748 -112.431862 124 18234ft 337kts
13-Jan-18 22:30 44.155838 -112.332478 125 16898ft 328kts
13-Jan-18 22:31 44.107980 -112.223426 89 15410ft 357kts
13-Jan-18 22:32 44.145300 -112.103129 53 15346ft 339kts
13-Jan-18 22:33 44.191894 -111.991459 68 16343ft 311kts
13-Jan-18 22:34 44.213036 -111.915067 61 16868ft 292kts
13-Jan-18 22:35 44.238890 -111.806150 66 16962ft 329kts
13-Jan-18 22:36 44.278110 -111.689663 51 16278ft 348kts
13-Jan-18 22:37 44.334366 -111.599038 19 15437ft 273kts
13-Jan-18 22:38 44.398770 -111.545310 31 13729ft 289kts
13-Jan-18 22:39 44.442485 -111.471274 48 11697ft 295kts
13-Jan-18 22:40 44.491495 -111.370867 51 9098ft 241kts
13-Jan-18 22:41 44.525478 -111.300579 51 9064ft 216kts
13-Jan-18 22:42 44.557800 -111.232484 53 9063ft 208kts
13-Jan-18 22:43 44.600078 -111.178271 22 8361ft 223kts
13-Jan-18 22:44 44.644212 -111.148136 24 7425ft 176kts
13-Jan-18 22:45 44.686557 -111.118888 26 6640ft 116kts
13-Jan-18 22:46 44.697926 -111.109455 188 6623ft 14kts
13-Jan-18 22:47 44.691049 -111.114058 207 6635ft 32kts
13-Jan-18 22:48 44.689161 -111.114058 21 6637ft 8kts
13-Jan-18 22:49 44.688737 -111.114034 206 6637ft 0kts
13-Jan-18 22:50 44.688737 -111.114034 206 6637ft 0kts
13-Jan-18 22:51 44.688737 -111.114034 206 6637ft 0kts
13-Jan-18 22:52 44.688737 -111.114034 206 6637ft 0kts
13-Jan-18 22:53 44.688737 -111.114034 206 6637ft 0kts
13-Jan-18 22:54 44.688737 -111.114034 206 6637ft 0kts
13-Jan-18 22:55 44.688737 -111.114034 206 6637ft 0kts
13-Jan-18 22:56 44.688737 -111.114034 206 6637ft 0kts
13-Jan-18 22:57 44.688737 -111.114034 206 6637ft 0kts
13-Jan-18 22:58 44.688737 -111.114034 206 6637ft 0kts
13-Jan-18 22:59 44.688737 -111.114034 206 6637ft 0kts
13-Jan-18 23:00 44.688737 -111.114034 206 6637ft 0kts
13-Jan-18 23:01 44.688737 -111.114034 206 6637ft 0kts

Navigation Log

Ident Type
Flight plan parsing failed, navigation log unavailable